sensor_id;sensor_type;location;lat;lon;timestamp;P1;durP1;ratioP1;P2;durP2;ratioP2
19836;SDS011;10079;55.740;37.662;2023-07-31T00:15:21;6.13;;;3.90;;
19836;SDS011;10079;55.740;37.662;2023-07-31T00:18:14;4.83;;;3.73;;
19836;SDS011;10079;55.740;37.662;2023-07-31T00:20:58;4.20;;;3.10;;
19836;SDS011;10079;55.740;37.662;2023-07-31T00:34:18;4.63;;;3.40;;
19836;SDS011;10079;55.740;37.662;2023-07-31T00:37:03;5.43;;;3.00;;
19836;SDS011;10079;55.740;37.662;2023-07-31T00:50:20;5.63;;;3.00;;
19836;SDS011;10079;55.740;37.662;2023-07-31T00:53:01;5.23;;;2.90;;
19836;SDS011;10079;55.740;37.662;2023-07-31T01:06:23;6.53;;;3.20;;
19836;SDS011;10079;55.740;37.662;2023-07-31T01:09:08;3.37;;;3.07;;
19836;SDS011;10079;55.740;37.662;2023-07-31T01:12:01;3.80;;;2.90;;
19836;SDS011;10079;55.740;37.662;2023-07-31T01:14:50;5.33;;;2.90;;
19836;SDS011;10079;55.740;37.662;2023-07-31T01:17:32;4.57;;;3.03;;
19836;SDS011;10079;55.740;37.662;2023-07-31T01:20:17;4.43;;;3.17;;
19836;SDS011;10079;55.740;37.662;2023-07-31T01:23:22;4.80;;;3.20;;
19836;SDS011;10079;55.740;37.662;2023-07-31T01:26:12;4.00;;;3.07;;
19836;SDS011;10079;55.740;37.662;2023-07-31T01:28:56;5.07;;;3.60;;
19836;SDS011;10079;55.740;37.662;2023-07-31T01:31:35;4.77;;;3.20;;
19836;SDS011;10079;55.740;37.662;2023-07-31T01:34:17;4.00;;;3.30;;
19836;SDS011;10079;55.740;37.662;2023-07-31T01:37:00;4.90;;;3.40;;
19836;SDS011;10079;55.740;37.662;2023-07-31T01:39:41;5.17;;;3.47;;
19836;SDS011;10079;55.740;37.662;2023-07-31T01:42:22;3.83;;;3.03;;
19836;SDS011;10079;55.740;37.662;2023-07-31T01:45:03;4.33;;;3.17;;
19836;SDS011;10079;55.740;37.662;2023-07-31T01:47:49;5.70;;;2.83;;
19836;SDS011;10079;55.740;37.662;2023-07-31T01:50:30;5.27;;;3.07;;
19836;SDS011;10079;55.740;37.662;2023-07-31T01:53:14;7.73;;;3.30;;
19836;SDS011;10079;55.740;37.662;2023-07-31T01:55:54;3.50;;;2.97;;
19836;SDS011;10079;55.740;37.662;2023-07-31T01:58:47;5.97;;;3.07;;
19836;SDS011;10079;55.740;37.662;2023-07-31T02:11:58;7.20;;;3.50;;
19836;SDS011;10079;55.740;37.662;2023-07-31T02:14:42;8.20;;;3.23;;
19836;SDS011;10079;55.740;37.662;2023-07-31T02:17:24;4.20;;;3.00;;
19836;SDS011;10079;55.740;37.662;2023-07-31T02:20:05;5.93;;;3.47;;
19836;SDS011;10079;55.740;37.662;2023-07-31T02:22:47;6.13;;;3.00;;
19836;SDS011;10079;55.740;37.662;2023-07-31T02:25:28;4.60;;;3.20;;
19836;SDS011;10079;55.740;37.662;2023-07-31T02:28:09;7.23;;;3.57;;
19836;SDS011;10079;55.740;37.662;2023-07-31T02:30:50;6.33;;;3.07;;
19836;SDS011;10079;55.740;37.662;2023-07-31T02:33:31;4.87;;;3.27;;
19836;SDS011;10079;55.740;37.662;2023-07-31T02:36:12;4.43;;;3.17;;
19836;SDS011;10079;55.740;37.662;2023-07-31T02:39:01;6.83;;;3.13;;
19836;SDS011;10079;55.740;37.662;2023-07-31T02:41:46;4.73;;;3.27;;
19836;SDS011;10079;55.740;37.662;2023-07-31T02:44:30;8.10;;;3.60;;
19836;SDS011;10079;55.740;37.662;2023-07-31T02:47:14;5.67;;;3.30;;
19836;SDS011;10079;55.740;37.662;2023-07-31T02:49:58;7.87;;;3.40;;
19836;SDS011;10079;55.740;37.662;2023-07-31T02:52:39;4.10;;;3.10;;
19836;SDS011;10079;55.740;37.662;2023-07-31T03:06:03;6.70;;;3.97;;
19836;SDS011;10079;55.740;37.662;2023-07-31T03:08:55;8.40;;;3.87;;
19836;SDS011;10079;55.740;37.662;2023-07-31T03:11:48;7.80;;;3.53;;
19836;SDS011;10079;55.740;37.662;2023-07-31T03:14:29;4.93;;;3.23;;
19836;SDS011;10079;55.740;37.662;2023-07-31T03:17:09;5.33;;;2.50;;
19836;SDS011;10079;55.740;37.662;2023-07-31T03:19:50;4.60;;;3.10;;
19836;SDS011;10079;55.740;37.662;2023-07-31T03:22:43;5.50;;;2.97;;
19836;SDS011;10079;55.740;37.662;2023-07-31T03:25:35;3.33;;;3.03;;
19836;SDS011;10079;55.740;37.662;2023-07-31T03:28:16;3.20;;;2.80;;
19836;SDS011;10079;55.740;37.662;2023-07-31T03:30:57;5.35;;;3.65;;
19836;SDS011;10079;55.740;37.662;2023-07-31T03:33:37;3.78;;;2.92;;
19836;SDS011;10079;55.740;37.662;2023-07-31T03:36:21;5.53;;;2.72;;
19836;SDS011;10079;55.740;37.662;2023-07-31T03:49:33;3.75;;;3.03;;
19836;SDS011;10079;55.740;37.662;2023-07-31T03:52:14;3.97;;;3.20;;
19836;SDS011;10079;55.740;37.662;2023-07-31T03:54:54;3.30;;;2.70;;
19836;SDS011;10079;55.740;37.662;2023-07-31T03:57:35;3.15;;;2.78;;
19836;SDS011;10079;55.740;37.662;2023-07-31T04:00:16;3.85;;;2.58;;
19836;SDS011;10079;55.740;37.662;2023-07-31T04:03:00;6.18;;;3.42;;
19836;SDS011;10079;55.740;37.662;2023-07-31T04:05:44;4.40;;;2.72;;
19836;SDS011;10079;55.740;37.662;2023-07-31T04:08:33;3.55;;;2.70;;
19836;SDS011;10079;55.740;37.662;2023-07-31T04:11:14;6.28;;;3.40;;
19836;SDS011;10079;55.740;37.662;2023-07-31T04:13:58;4.95;;;3.00;;
19836;SDS011;10079;55.740;37.662;2023-07-31T04:16:51;5.03;;;2.47;;
19836;SDS011;10079;55.740;37.662;2023-07-31T04:19:31;3.90;;;2.28;;
19836;SDS011;10079;55.740;37.662;2023-07-31T04:22:15;3.78;;;2.95;;
19836;SDS011;10079;55.740;37.662;2023-07-31T04:25:06;2.72;;;2.33;;
19836;SDS011;10079;55.740;37.662;2023-07-31T04:27:47;2.28;;;2.00;;
19836;SDS011;10079;55.740;37.662;2023-07-31T04:30:28;3.50;;;2.47;;
19836;SDS011;10079;55.740;37.662;2023-07-31T04:33:08;2.60;;;2.40;;
19836;SDS011;10079;55.740;37.662;2023-07-31T04:35:50;4.95;;;2.67;;
19836;SDS011;10079;55.740;37.662;2023-07-31T04:38:32;3.75;;;2.60;;
19836;SDS011;10079;55.740;37.662;2023-07-31T04:41:12;4.40;;;2.60;;
19836;SDS011;10079;55.740;37.662;2023-07-31T04:43:56;3.37;;;2.45;;
19836;SDS011;10079;55.740;37.662;2023-07-31T04:46:37;2.60;;;2.40;;
19836;SDS011;10079;55.740;37.662;2023-07-31T04:49:30;2.78;;;2.50;;
19836;SDS011;10079;55.740;37.662;2023-07-31T04:52:10;3.37;;;2.25;;
19836;SDS011;10079;55.740;37.662;2023-07-31T04:54:54;2.83;;;2.35;;
19836;SDS011;10079;55.740;37.662;2023-07-31T04:57:44;3.83;;;2.65;;
19836;SDS011;10079;55.740;37.662;2023-07-31T05:00:36;2.72;;;2.28;;
19836;SDS011;10079;55.740;37.662;2023-07-31T05:03:17;2.37;;;2.17;;
19836;SDS011;10079;55.740;37.662;2023-07-31T05:06:10;3.08;;;2.58;;
19836;SDS011;10079;55.740;37.662;2023-07-31T05:08:54;3.10;;;2.50;;
19836;SDS011;10079;55.740;37.662;2023-07-31T05:11:38;2.03;;;1.83;;
19836;SDS011;10079;55.740;37.662;2023-07-31T05:14:19;3.58;;;2.50;;
19836;SDS011;10079;55.740;37.662;2023-07-31T05:27:30;3.00;;;2.45;;
19836;SDS011;10079;55.740;37.662;2023-07-31T05:30:11;4.57;;;3.15;;
19836;SDS011;10079;55.740;37.662;2023-07-31T05:32:51;3.67;;;2.60;;
19836;SDS011;10079;55.740;37.662;2023-07-31T05:35:32;2.47;;;2.28;;
19836;SDS011;10079;55.740;37.662;2023-07-31T05:38:13;2.22;;;2.03;;
19836;SDS011;10079;55.740;37.662;2023-07-31T05:51:48;3.30;;;2.08;;
19836;SDS011;10079;55.740;37.662;2023-07-31T05:54:42;2.62;;;2.17;;
19836;SDS011;10079;55.740;37.662;2023-07-31T05:57:26;5.07;;;2.55;;
19836;SDS011;10079;55.740;37.662;2023-07-31T06:10:56;3.05;;;2.20;;
19836;SDS011;10079;55.740;37.662;2023-07-31T06:13:37;3.97;;;3.28;;
19836;SDS011;10079;55.740;37.662;2023-07-31T06:16:28;3.70;;;2.17;;
19836;SDS011;10079;55.740;37.662;2023-07-31T06:19:12;3.22;;;1.92;;
19836;SDS011;10079;55.740;37.662;2023-07-31T06:22:05;5.35;;;2.65;;
19836;SDS011;10079;55.740;37.662;2023-07-31T06:24:57;3.95;;;2.60;;
19836;SDS011;10079;55.740;37.662;2023-07-31T06:38:14;4.00;;;2.30;;
19836;SDS011;10079;55.740;37.662;2023-07-31T06:51:29;3.30;;;1.83;;
19836;SDS011;10079;55.740;37.662;2023-07-31T06:54:10;2.22;;;2.00;;
19836;SDS011;10079;55.740;37.662;2023-07-31T06:56:51;2.65;;;2.10;;
19836;SDS011;10079;55.740;37.662;2023-07-31T06:59:31;2.30;;;2.10;;
19836;SDS011;10079;55.740;37.662;2023-07-31T07:02:12;3.20;;;2.25;;
19836;SDS011;10079;55.740;37.662;2023-07-31T07:04:57;2.25;;;1.85;;
19836;SDS011;10079;55.740;37.662;2023-07-31T07:07:38;2.58;;;2.00;;
19836;SDS011;10079;55.740;37.662;2023-07-31T07:10:22;4.10;;;1.90;;
19836;SDS011;10079;55.740;37.662;2023-07-31T07:13:03;1.80;;;1.70;;
19836;SDS011;10079;55.740;37.662;2023-07-31T07:15:47;3.10;;;2.08;;
19836;SDS011;10079;55.740;37.662;2023-07-31T07:18:33;2.30;;;2.00;;
19836;SDS011;10079;55.740;37.662;2023-07-31T07:21:13;3.15;;;1.90;;
19836;SDS011;10079;55.740;37.662;2023-07-31T07:23:58;3.05;;;1.90;;
19836;SDS011;10079;55.740;37.662;2023-07-31T07:26:39;1.90;;;1.80;;
19836;SDS011;10079;55.740;37.662;2023-07-31T07:29:19;1.80;;;1.70;;
19836;SDS011;10079;55.740;37.662;2023-07-31T07:32:04;2.17;;;1.60;;
19836;SDS011;10079;55.740;37.662;2023-07-31T07:34:45;2.10;;;1.90;;
19836;SDS011;10079;55.740;37.662;2023-07-31T07:37:26;1.98;;;1.87;;
19836;SDS011;10079;55.740;37.662;2023-07-31T07:40:07;1.73;;;1.60;;
19836;SDS011;10079;55.740;37.662;2023-07-31T07:42:49;2.75;;;1.60;;
19836;SDS011;10079;55.740;37.662;2023-07-31T07:45:30;1.70;;;1.50;;
19836;SDS011;10079;55.740;37.662;2023-07-31T07:48:10;2.50;;;2.00;;
19836;SDS011;10079;55.740;37.662;2023-07-31T07:50:52;2.62;;;1.80;;
19836;SDS011;10079;55.740;37.662;2023-07-31T07:53:44;2.80;;;2.22;;
19836;SDS011;10079;55.740;37.662;2023-07-31T07:56:37;2.50;;;1.80;;
19836;SDS011;10079;55.740;37.662;2023-07-31T07:59:29;3.78;;;1.92;;
19836;SDS011;10079;55.740;37.662;2023-07-31T08:02:22;2.12;;;1.92;;
19836;SDS011;10079;55.740;37.662;2023-07-31T08:05:03;2.25;;;1.83;;
19836;SDS011;10079;55.740;37.662;2023-07-31T08:07:44;3.55;;;1.87;;
19836;SDS011;10079;55.740;37.662;2023-07-31T08:10:25;3.83;;;1.70;;
19836;SDS011;10079;55.740;37.662;2023-07-31T08:13:11;2.10;;;1.67;;
19836;SDS011;10079;55.740;37.662;2023-07-31T08:15:50;4.93;;;1.92;;
19836;SDS011;10079;55.740;37.662;2023-07-31T08:18:31;2.28;;;2.08;;
19836;SDS011;10079;55.740;37.662;2023-07-31T08:21:11;2.70;;;2.50;;
19836;SDS011;10079;55.740;37.662;2023-07-31T08:23:52;2.75;;;1.90;;
19836;SDS011;10079;55.740;37.662;2023-07-31T08:26:33;2.67;;;2.05;;
19836;SDS011;10079;55.740;37.662;2023-07-31T08:29:14;3.25;;;2.03;;
19836;SDS011;10079;55.740;37.662;2023-07-31T08:32:06;2.87;;;1.87;;
19836;SDS011;10079;55.740;37.662;2023-07-31T08:34:47;2.97;;;1.67;;
19836;SDS011;10079;55.740;37.662;2023-07-31T08:37:27;1.65;;;1.55;;
19836;SDS011;10079;55.740;37.662;2023-07-31T08:40:08;1.70;;;1.60;;
19836;SDS011;10079;55.740;37.662;2023-07-31T08:42:52;2.83;;;1.85;;
19836;SDS011;10079;55.740;37.662;2023-07-31T08:45:41;2.30;;;2.10;;
19836;SDS011;10079;55.740;37.662;2023-07-31T08:48:22;2.55;;;2.12;;
19836;SDS011;10079;55.740;37.662;2023-07-31T08:51:02;2.53;;;1.60;;
19836;SDS011;10079;55.740;37.662;2023-07-31T08:53:47;2.45;;;2.22;;
19836;SDS011;10079;55.740;37.662;2023-07-31T08:56:31;3.35;;;2.00;;
19836;SDS011;10079;55.740;37.662;2023-07-31T08:59:15;1.98;;;1.75;;
19836;SDS011;10079;55.740;37.662;2023-07-31T09:02:01;2.45;;;2.25;;
19836;SDS011;10079;55.740;37.662;2023-07-31T09:04:40;2.08;;;1.77;;
19836;SDS011;10079;55.740;37.662;2023-07-31T09:07:20;2.37;;;1.70;;
19836;SDS011;10079;55.740;37.662;2023-07-31T09:10:02;3.35;;;2.17;;
19836;SDS011;10079;55.740;37.662;2023-07-31T09:12:45;3.25;;;2.20;;
19836;SDS011;10079;55.740;37.662;2023-07-31T09:15:27;2.12;;;1.92;;
19836;SDS011;10079;55.740;37.662;2023-07-31T09:18:07;2.25;;;1.70;;
19836;SDS011;10079;55.740;37.662;2023-07-31T09:21:04;2.03;;;1.92;;
19836;SDS011;10079;55.740;37.662;2023-07-31T09:23:48;2.58;;;2.37;;
19836;SDS011;10079;55.740;37.662;2023-07-31T09:26:40;2.83;;;1.87;;
19836;SDS011;10079;55.740;37.662;2023-07-31T09:29:30;2.20;;;2.08;;
19836;SDS011;10079;55.740;37.662;2023-07-31T09:32:22;2.33;;;2.12;;
19836;SDS011;10079;55.740;37.662;2023-07-31T09:35:12;2.50;;;2.30;;
19836;SDS011;10079;55.740;37.662;2023-07-31T09:38:09;3.80;;;2.50;;
19836;SDS011;10079;55.740;37.662;2023-07-31T09:41:02;4.43;;;2.72;;
19836;SDS011;10079;55.740;37.662;2023-07-31T09:54:25;4.28;;;3.03;;
19836;SDS011;10079;55.740;37.662;2023-07-31T09:57:18;2.90;;;1.90;;
19836;SDS011;10079;55.740;37.662;2023-07-31T10:00:02;3.92;;;2.53;;
19836;SDS011;10079;55.740;37.662;2023-07-31T10:13:14;3.85;;;2.50;;
19836;SDS011;10079;55.740;37.662;2023-07-31T10:15:59;3.95;;;2.20;;
19836;SDS011;10079;55.740;37.662;2023-07-31T10:18:39;2.97;;;1.92;;
19836;SDS011;10079;55.740;37.662;2023-07-31T10:21:24;2.58;;;2.20;;
19836;SDS011;10079;55.740;37.662;2023-07-31T10:24:13;2.50;;;2.30;;
19836;SDS011;10079;55.740;37.662;2023-07-31T10:26:57;2.20;;;2.10;;
19836;SDS011;10079;55.740;37.662;2023-07-31T10:29:43;3.90;;;2.95;;
19836;SDS011;10079;55.740;37.662;2023-07-31T10:32:22;3.15;;;2.62;;
19836;SDS011;10079;55.740;37.662;2023-07-31T10:35:03;3.10;;;2.15;;
19836;SDS011;10079;55.740;37.662;2023-07-31T10:37:45;4.97;;;2.95;;
19836;SDS011;10079;55.740;37.662;2023-07-31T10:40:29;3.03;;;2.53;;
19836;SDS011;10079;55.740;37.662;2023-07-31T10:43:24;4.18;;;2.22;;
19836;SDS011;10079;55.740;37.662;2023-07-31T10:46:07;2.25;;;2.05;;
19836;SDS011;10079;55.740;37.662;2023-07-31T10:48:48;3.03;;;2.10;;
19836;SDS011;10079;55.740;37.662;2023-07-31T10:51:33;2.72;;;1.98;;
19836;SDS011;10079;55.740;37.662;2023-07-31T10:54:15;3.15;;;2.28;;
19836;SDS011;10079;55.740;37.662;2023-07-31T10:56:55;3.65;;;2.50;;
19836;SDS011;10079;55.740;37.662;2023-07-31T11:10:15;4.00;;;2.47;;
19836;SDS011;10079;55.740;37.662;2023-07-31T11:12:53;3.20;;;2.40;;
19836;SDS011;10079;55.740;37.662;2023-07-31T11:15:34;2.87;;;2.53;;
19836;SDS011;10079;55.740;37.662;2023-07-31T11:18:27;2.62;;;2.17;;
19836;SDS011;10079;55.740;37.662;2023-07-31T11:31:43;2.65;;;2.45;;
19836;SDS011;10079;55.740;37.662;2023-07-31T11:34:24;4.70;;;2.25;;
19836;SDS011;10079;55.740;37.662;2023-07-31T11:37:08;3.10;;;2.37;;
19836;SDS011;10079;55.740;37.662;2023-07-31T11:42:39;2.15;;;1.95;;
19836;SDS011;10079;55.740;37.662;2023-07-31T11:45:24;2.30;;;2.10;;
19836;SDS011;10079;55.740;37.662;2023-07-31T11:58:57;2.20;;;2.00;;
19836;SDS011;10079;55.740;37.662;2023-07-31T12:01:51;2.85;;;2.00;;
19836;SDS011;10079;55.740;37.662;2023-07-31T12:04:35;3.20;;;2.42;;
19836;SDS011;10079;55.740;37.662;2023-07-31T12:07:24;3.35;;;2.20;;
19836;SDS011;10079;55.740;37.662;2023-07-31T12:10:06;2.58;;;2.37;;
19836;SDS011;10079;55.740;37.662;2023-07-31T12:12:55;3.65;;;2.53;;
19836;SDS011;10079;55.740;37.662;2023-07-31T12:15:37;3.55;;;2.97;;
19836;SDS011;10079;55.740;37.662;2023-07-31T12:18:19;2.95;;;2.22;;
19836;SDS011;10079;55.740;37.662;2023-07-31T12:21:04;2.22;;;1.98;;
19836;SDS011;10079;55.740;37.662;2023-07-31T12:23:44;2.87;;;2.50;;
19836;SDS011;10079;55.740;37.662;2023-07-31T12:26:25;2.50;;;2.17;;
19836;SDS011;10079;55.740;37.662;2023-07-31T12:29:07;3.35;;;2.92;;
19836;SDS011;10079;55.740;37.662;2023-07-31T12:31:47;5.72;;;2.30;;
19836;SDS011;10079;55.740;37.662;2023-07-31T12:34:28;2.60;;;2.15;;
19836;SDS011;10079;55.740;37.662;2023-07-31T12:37:09;2.78;;;2.55;;
19836;SDS011;10079;55.740;37.662;2023-07-31T12:39:50;4.05;;;2.20;;
19836;SDS011;10079;55.740;37.662;2023-07-31T12:42:31;6.05;;;2.92;;
19836;SDS011;10079;55.740;37.662;2023-07-31T12:45:12;4.78;;;2.67;;
19836;SDS011;10079;55.740;37.662;2023-07-31T12:47:53;3.33;;;2.47;;
19836;SDS011;10079;55.740;37.662;2023-07-31T12:50:34;5.03;;;2.62;;
19836;SDS011;10079;55.740;37.662;2023-07-31T12:53:15;7.50;;;3.08;;
19836;SDS011;10079;55.740;37.662;2023-07-31T12:55:55;4.68;;;2.72;;
19836;SDS011;10079;55.740;37.662;2023-07-31T12:58:36;4.90;;;2.60;;
19836;SDS011;10079;55.740;37.662;2023-07-31T13:01:17;3.12;;;2.72;;
19836;SDS011;10079;55.740;37.662;2023-07-31T13:03:58;3.67;;;2.17;;
19836;SDS011;10079;55.740;37.662;2023-07-31T13:06:39;2.95;;;2.50;;
19836;SDS011;10079;55.740;37.662;2023-07-31T13:09:20;5.70;;;2.70;;
19836;SDS011;10079;55.740;37.662;2023-07-31T13:12:02;3.70;;;2.67;;
19836;SDS011;10079;55.740;37.662;2023-07-31T13:14:45;4.95;;;2.90;;
19836;SDS011;10079;55.740;37.662;2023-07-31T13:17:26;4.53;;;3.00;;
19836;SDS011;10079;55.740;37.662;2023-07-31T13:20:08;5.70;;;3.08;;
19836;SDS011;10079;55.740;37.662;2023-07-31T13:22:49;3.70;;;2.50;;
19836;SDS011;10079;55.740;37.662;2023-07-31T13:25:30;6.20;;;2.53;;
19836;SDS011;10079;55.740;37.662;2023-07-31T13:28:11;3.80;;;2.67;;
19836;SDS011;10079;55.740;37.662;2023-07-31T13:30:52;4.43;;;2.47;;
19836;SDS011;10079;55.740;37.662;2023-07-31T13:33:33;2.60;;;2.10;;
19836;SDS011;10079;55.740;37.662;2023-07-31T13:36:14;7.05;;;2.95;;
19836;SDS011;10079;55.740;37.662;2023-07-31T13:38:55;2.85;;;2.20;;
19836;SDS011;10079;55.740;37.662;2023-07-31T13:41:36;4.93;;;3.08;;
19836;SDS011;10079;55.740;37.662;2023-07-31T13:44:17;5.32;;;2.80;;
19836;SDS011;10079;55.740;37.662;2023-07-31T13:46:58;4.28;;;3.53;;
19836;SDS011;10079;55.740;37.662;2023-07-31T13:49:38;3.20;;;2.70;;
19836;SDS011;10079;55.740;37.662;2023-07-31T13:52:19;3.53;;;2.20;;
19836;SDS011;10079;55.740;37.662;2023-07-31T13:55:01;3.53;;;2.50;;
19836;SDS011;10079;55.740;37.662;2023-07-31T13:57:41;3.55;;;2.70;;
19836;SDS011;10079;55.740;37.662;2023-07-31T14:00:23;4.28;;;2.28;;
19836;SDS011;10079;55.740;37.662;2023-07-31T14:03:03;4.95;;;3.00;;
19836;SDS011;10079;55.740;37.662;2023-07-31T14:05:44;3.65;;;2.50;;
19836;SDS011;10079;55.740;37.662;2023-07-31T14:08:25;7.22;;;2.80;;
19836;SDS011;10079;55.740;37.662;2023-07-31T14:11:06;6.75;;;2.83;;
19836;SDS011;10079;55.740;37.662;2023-07-31T14:13:47;2.60;;;2.40;;
19836;SDS011;10079;55.740;37.662;2023-07-31T14:16:27;3.28;;;2.40;;
19836;SDS011;10079;55.740;37.662;2023-07-31T14:19:08;4.80;;;2.60;;
19836;SDS011;10079;55.740;37.662;2023-07-31T14:21:49;4.68;;;2.55;;
19836;SDS011;10079;55.740;37.662;2023-07-31T14:24:30;3.75;;;2.58;;
19836;SDS011;10079;55.740;37.662;2023-07-31T14:27:11;5.78;;;2.87;;
19836;SDS011;10079;55.740;37.662;2023-07-31T14:29:51;3.55;;;2.85;;
19836;SDS011;10079;55.740;37.662;2023-07-31T14:32:32;3.60;;;2.42;;
19836;SDS011;10079;55.740;37.662;2023-07-31T14:35:13;4.15;;;2.37;;
19836;SDS011;10079;55.740;37.662;2023-07-31T14:37:54;3.08;;;2.58;;
19836;SDS011;10079;55.740;37.662;2023-07-31T14:40:35;3.83;;;2.50;;
19836;SDS011;10079;55.740;37.662;2023-07-31T14:43:16;4.20;;;3.00;;
19836;SDS011;10079;55.740;37.662;2023-07-31T14:45:57;3.83;;;2.40;;
19836;SDS011;10079;55.740;37.662;2023-07-31T14:48:37;4.78;;;2.45;;
19836;SDS011;10079;55.740;37.662;2023-07-31T14:51:18;3.40;;;2.60;;
19836;SDS011;10079;55.740;37.662;2023-07-31T14:53:59;3.00;;;2.70;;
19836;SDS011;10079;55.740;37.662;2023-07-31T14:56:40;3.33;;;2.30;;
19836;SDS011;10079;55.740;37.662;2023-07-31T14:59:24;3.53;;;2.50;;
19836;SDS011;10079;55.740;37.662;2023-07-31T15:02:06;4.18;;;2.42;;
19836;SDS011;10079;55.740;37.662;2023-07-31T15:04:46;4.30;;;2.30;;
19836;SDS011;10079;55.740;37.662;2023-07-31T15:07:27;3.00;;;2.70;;
19836;SDS011;10079;55.740;37.662;2023-07-31T15:10:10;4.95;;;3.05;;
19836;SDS011;10079;55.740;37.662;2023-07-31T15:12:51;5.53;;;3.90;;
19836;SDS011;10079;55.740;37.662;2023-07-31T15:15:32;5.25;;;3.45;;
19836;SDS011;10079;55.740;37.662;2023-07-31T15:18:12;4.45;;;3.12;;
19836;SDS011;10079;55.740;37.662;2023-07-31T15:20:53;4.40;;;3.58;;
19836;SDS011;10079;55.740;37.662;2023-07-31T15:23:34;3.97;;;3.20;;
19836;SDS011;10079;55.740;37.662;2023-07-31T15:26:14;4.45;;;3.15;;
19836;SDS011;10079;55.740;37.662;2023-07-31T15:28:57;3.50;;;3.20;;
19836;SDS011;10079;55.740;37.662;2023-07-31T15:31:44;4.68;;;3.67;;
19836;SDS011;10079;55.740;37.662;2023-07-31T15:34:24;3.87;;;3.42;;
19836;SDS011;10079;55.740;37.662;2023-07-31T15:37:05;5.55;;;3.37;;
19836;SDS011;10079;55.740;37.662;2023-07-31T15:39:46;7.97;;;3.97;;
19836;SDS011;10079;55.740;37.662;2023-07-31T15:42:26;5.37;;;3.10;;
19836;SDS011;10079;55.740;37.662;2023-07-31T15:45:11;3.72;;;3.00;;
19836;SDS011;10079;55.740;37.662;2023-07-31T15:47:51;4.05;;;3.35;;
19836;SDS011;10079;55.740;37.662;2023-07-31T15:50:32;6.72;;;3.50;;
19836;SDS011;10079;55.740;37.662;2023-07-31T15:53:13;4.70;;;3.42;;
19836;SDS011;10079;55.740;37.662;2023-07-31T15:55:54;6.43;;;3.30;;
19836;SDS011;10079;55.740;37.662;2023-07-31T15:58:34;4.30;;;2.83;;
19836;SDS011;10079;55.740;37.662;2023-07-31T16:01:16;4.57;;;3.03;;
19836;SDS011;10079;55.740;37.662;2023-07-31T16:03:56;7.23;;;3.70;;
19836;SDS011;10079;55.740;37.662;2023-07-31T16:06:37;4.67;;;3.33;;
19836;SDS011;10079;55.740;37.662;2023-07-31T16:09:18;4.60;;;3.40;;
19836;SDS011;10079;55.740;37.662;2023-07-31T16:11:59;5.47;;;3.27;;
19836;SDS011;10079;55.740;37.662;2023-07-31T16:14:39;4.43;;;3.10;;
19836;SDS011;10079;55.740;37.662;2023-07-31T16:17:20;4.73;;;3.90;;
19836;SDS011;10079;55.740;37.662;2023-07-31T16:20:01;6.67;;;3.30;;
19836;SDS011;10079;55.740;37.662;2023-07-31T16:22:41;5.40;;;3.13;;
19836;SDS011;10079;55.740;37.662;2023-07-31T16:25:22;3.10;;;2.50;;
19836;SDS011;10079;55.740;37.662;2023-07-31T16:28:03;4.63;;;3.00;;
19836;SDS011;10079;55.740;37.662;2023-07-31T16:30:43;5.63;;;3.27;;
19836;SDS011;10079;55.740;37.662;2023-07-31T16:33:24;3.70;;;3.23;;
19836;SDS011;10079;55.740;37.662;2023-07-31T16:36:05;5.93;;;3.47;;
19836;SDS011;10079;55.740;37.662;2023-07-31T16:38:46;7.40;;;3.70;;
19836;SDS011;10079;55.740;37.662;2023-07-31T16:41:27;6.77;;;2.83;;
19836;SDS011;10079;55.740;37.662;2023-07-31T16:44:07;5.67;;;3.43;;
19836;SDS011;10079;55.740;37.662;2023-07-31T16:46:48;3.93;;;3.00;;
19836;SDS011;10079;55.740;37.662;2023-07-31T16:49:30;6.50;;;3.57;;
19836;SDS011;10079;55.740;37.662;2023-07-31T16:52:10;6.33;;;3.10;;
19836;SDS011;10079;55.740;37.662;2023-07-31T16:54:51;4.67;;;3.03;;
19836;SDS011;10079;55.740;37.662;2023-07-31T16:57:32;5.27;;;2.83;;
19836;SDS011;10079;55.740;37.662;2023-07-31T17:00:16;5.17;;;2.80;;
19836;SDS011;10079;55.740;37.662;2023-07-31T17:02:57;3.67;;;2.53;;
19836;SDS011;10079;55.740;37.662;2023-07-31T17:05:38;4.17;;;2.67;;
19836;SDS011;10079;55.740;37.662;2023-07-31T17:18:59;4.60;;;3.20;;
19836;SDS011;10079;55.740;37.662;2023-07-31T17:21:40;6.53;;;4.17;;
19836;SDS011;10079;55.740;37.662;2023-07-31T17:24:29;4.93;;;3.30;;
19836;SDS011;10079;55.740;37.662;2023-07-31T17:27:10;5.97;;;3.80;;
19836;SDS011;10079;55.740;37.662;2023-07-31T17:40:30;5.87;;;4.10;;
19836;SDS011;10079;55.740;37.662;2023-07-31T17:43:14;4.83;;;3.43;;
19836;SDS011;10079;55.740;37.662;2023-07-31T17:46:07;4.50;;;3.40;;
19836;SDS011;10079;55.740;37.662;2023-07-31T17:59:30;5.87;;;4.03;;
19836;SDS011;10079;55.740;37.662;2023-07-31T18:02:14;7.53;;;4.53;;
19836;SDS011;10079;55.740;37.662;2023-07-31T18:04:58;5.17;;;3.90;;
19836;SDS011;10079;55.740;37.662;2023-07-31T18:07:42;5.63;;;3.60;;
19836;SDS011;10079;55.740;37.662;2023-07-31T18:10:42;4.77;;;3.10;;
19836;SDS011;10079;55.740;37.662;2023-07-31T18:13:16;6.20;;;3.33;;
19836;SDS011;10079;55.740;37.662;2023-07-31T18:16:01;5.30;;;3.53;;
19836;SDS011;10079;55.740;37.662;2023-07-31T18:18:45;3.50;;;2.97;;
19836;SDS011;10079;55.740;37.662;2023-07-31T18:21:26;4.87;;;3.23;;
19836;SDS011;10079;55.740;37.662;2023-07-31T18:24:07;5.33;;;3.23;;
19836;SDS011;10079;55.740;37.662;2023-07-31T18:26:51;3.50;;;3.20;;
19836;SDS011;10079;55.740;37.662;2023-07-31T18:29:41;7.87;;;3.90;;
19836;SDS011;10079;55.740;37.662;2023-07-31T18:32:22;4.77;;;3.50;;
19836;SDS011;10079;55.740;37.662;2023-07-31T18:35:06;6.17;;;3.63;;
19836;SDS011;10079;55.740;37.662;2023-07-31T18:37:53;6.67;;;3.83;;
19836;SDS011;10079;55.740;37.662;2023-07-31T18:40:34;5.90;;;3.70;;
19836;SDS011;10079;55.740;37.662;2023-07-31T18:43:24;6.77;;;3.47;;
19836;SDS011;10079;55.740;37.662;2023-07-31T18:46:04;7.10;;;3.63;;
19836;SDS011;10079;55.740;37.662;2023-07-31T18:48:45;8.07;;;4.20;;
19836;SDS011;10079;55.740;37.662;2023-07-31T18:51:38;4.40;;;3.60;;
19836;SDS011;10079;55.740;37.662;2023-07-31T18:54:19;5.83;;;3.60;;
19836;SDS011;10079;55.740;37.662;2023-07-31T18:57:11;7.47;;;3.40;;
19836;SDS011;10079;55.740;37.662;2023-07-31T18:59:52;6.87;;;4.00;;
19836;SDS011;10079;55.740;37.662;2023-07-31T19:02:45;7.93;;;3.80;;
19836;SDS011;10079;55.740;37.662;2023-07-31T19:05:30;6.73;;;3.67;;
19836;SDS011;10079;55.740;37.662;2023-07-31T19:08:11;6.93;;;4.00;;
19836;SDS011;10079;55.740;37.662;2023-07-31T19:10:52;9.87;;;4.40;;
19836;SDS011;10079;55.740;37.662;2023-07-31T19:13:32;8.80;;;3.97;;
19836;SDS011;10079;55.740;37.662;2023-07-31T19:16:13;5.97;;;3.73;;
19836;SDS011;10079;55.740;37.662;2023-07-31T19:18:54;6.10;;;3.90;;
19836;SDS011;10079;55.740;37.662;2023-07-31T19:21:35;5.50;;;4.10;;
19836;SDS011;10079;55.740;37.662;2023-07-31T19:24:15;8.70;;;4.87;;
19836;SDS011;10079;55.740;37.662;2023-07-31T19:26:56;5.50;;;3.90;;
19836;SDS011;10079;55.740;37.662;2023-07-31T19:29:49;5.60;;;3.90;;
19836;SDS011;10079;55.740;37.662;2023-07-31T19:32:42;11.67;;;4.30;;
19836;SDS011;10079;55.740;37.662;2023-07-31T19:35:34;9.07;;;4.63;;
19836;SDS011;10079;55.740;37.662;2023-07-31T19:38:27;8.60;;;4.07;;
19836;SDS011;10079;55.740;37.662;2023-07-31T19:41:08;9.23;;;4.10;;
19836;SDS011;10079;55.740;37.662;2023-07-31T19:43:49;6.27;;;4.77;;
19836;SDS011;10079;55.740;37.662;2023-07-31T19:46:30;6.03;;;4.87;;